Time;durP1;ratioP1;P1;durP2;ratioP2;P2;SDS_P1;SDS_P2;PMS_P1;PMS_P2;Temp;Humidity;BMP_temperature;BMP_pressure;BME280_temperature;BME280_humidity;BME280_pressure;Samples;Min_cycle;Max_cycle;Signal;HPM_P1;HPM_P2
2024/01/30 00:01:04;;;;;;;10.10;5.10;;;;;;;-2.25;100.00;102986.73;104916;1254;61093;-55
2024/01/30 00:03:32;;;;;;;10.50;6.90;;;;;;;-2.22;100.00;102984.26;105160;1254;60532;-54
2024/01/30 00:05:59;;;;;;;8.50;5.50;;;;;;;-2.17;100.00;102982.39;104845;1258;73909;-55
2024/01/30 00:08:26;;;;;;;10.40;6.40;;;;;;;-2.14;100.00;102980.66;105013;1254;65851;-54
2024/01/30 00:10:54;;;;;;;12.10;5.50;;;;;;;-2.10;100.00;102979.08;105371;1254;73134;-55
2024/01/30 00:13:21;;;;;;;13.20;7.40;;;;;;;-2.07;100.00;102984.20;105031;1254;60715;-55
2024/01/30 00:15:50;;;;;;;8.70;6.40;;;;;;;-2.05;100.00;102989.23;106860;1254;61051;-54
2024/01/30 00:18:18;;;;;;;10.80;6.40;;;;;;;-2.03;100.00;102986.14;107971;1257;72594;-54
2024/01/30 00:20:45;;;;;;;9.50;6.30;;;;;;;-2.03;100.00;102980.54;105055;1257;69090;-55
2024/01/30 00:23:13;;;;;;;11.10;7.00;;;;;;;-2.02;100.00;102985.16;104952;1255;72714;-54
2024/01/30 00:25:40;;;;;;;11.10;5.90;;;;;;;-2.02;100.00;102979.34;105131;1254;60332;-55
2024/01/30 00:28:07;;;;;;;11.40;7.10;;;;;;;-2.03;100.00;102976.84;105186;1253;60582;-55
2024/01/30 00:30:35;;;;;;;11.20;6.30;;;;;;;-2.03;100.00;102974.02;105059;1253;72594;-53
2024/01/30 00:33:02;;;;;;;9.80;6.00;;;;;;;-2.04;100.00;102970.98;105040;1256;67336;-53
2024/01/30 00:35:30;;;;;;;7.90;5.30;;;;;;;-2.06;100.00;102961.92;105123;1257;72702;-54
2024/01/30 00:37:57;;;;;;;9.90;5.70;;;;;;;-2.08;100.00;102956.88;105036;1256;60639;-54
2024/01/30 00:40:24;;;;;;;7.90;4.20;;;;;;;-2.08;100.00;102960.55;105168;1257;60629;-53
2024/01/30 00:42:52;;;;;;;8.80;4.10;;;;;;;-2.07;100.00;102959.58;105766;1254;72368;-54
2024/01/30 00:45:19;;;;;;;5.40;2.70;;;;;;;-2.06;100.00;102960.83;105136;1254;64715;-55
2024/01/30 00:47:46;;;;;;;5.80;3.90;;;;;;;-2.04;100.00;102956.54;105046;1257;72732;-54
2024/01/30 00:50:14;;;;;;;7.10;4.00;;;;;;;-2.01;100.00;102955.10;105256;1254;60514;-54
2024/01/30 00:52:44;;;;;;;7.20;4.50;;;;;;;-1.99;100.00;102950.67;105380;1254;61092;-54
2024/01/30 00:55:14;;;;;;;7.20;4.10;;;;;;;-1.97;100.00;102952.39;105201;1257;72617;-55
2024/01/30 00:57:41;;;;;;;7.00;3.50;;;;;;;-1.94;100.00;102943.69;104980;1257;69772;-54
2024/01/30 01:00:12;;;;;;;8.00;5.00;;;;;;;-1.92;100.00;102944.36;105169;1258;72659;-54
2024/01/30 01:02:39;;;;;;;5.90;4.10;;;;;;;-1.91;100.00;102943.02;105603;1253;60534;-54
2024/01/30 01:05:08;;;;;;;8.50;4.30;;;;;;;-1.91;100.00;102941.60;105068;1254;60687;-55
2024/01/30 01:07:35;;;;;;;5.70;3.10;;;;;;;-1.92;100.00;102938.19;106406;1254;74631;-55
2024/01/30 01:10:03;;;;;;;7.50;3.30;;;;;;;-1.95;100.00;102937.50;105132;1254;69303;-54
2024/01/30 01:12:31;;;;;;;4.20;3.50;;;;;;;-1.98;100.00;102933.48;105630;1253;71697;-54
2024/01/30 01:14:58;;;;;;;5.10;4.10;;;;;;;-2.01;100.00;102930.85;105117;1257;60415;-52
2024/01/30 01:17:25;;;;;;;6.60;3.70;;;;;;;-2.03;100.00;102924.58;105091;1254;60547;-55
2024/01/30 01:19:52;;;;;;;6.20;4.40;;;;;;;-2.06;100.00;102921.08;105127;1254;74783;-53
2024/01/30 01:22:20;;;;;;;7.10;4.50;;;;;;;-2.10;100.00;102915.73;105102;1254;67743;-54
2024/01/30 01:24:47;;;;;;;5.50;4.40;;;;;;;-2.14;100.00;102907.98;106010;1253;73615;-53
2024/01/30 01:27:16;;;;;;;5.80;4.10;;;;;;;-2.17;100.00;102905.16;105014;1257;60648;-55
2024/01/30 01:29:43;;;;;;;6.00;2.70;;;;;;;-2.18;100.00;102901.04;105036;1257;60869;-53
2024/01/30 01:32:10;;;;;;;3.40;2.90;;;;;;;-2.20;100.00;102893.91;104919;1254;71694;-55
2024/01/30 01:34:38;;;;;;;4.40;2.80;;;;;;;-2.22;100.00;102883.47;104952;1255;66153;-54
2024/01/30 01:37:05;;;;;;;4.70;3.50;;;;;;;-2.21;100.00;102875.05;105073;1254;71438;-54
2024/01/30 01:39:33;;;;;;;3.90;2.80;;;;;;;-2.20;100.00;102872.08;104923;1254;60473;-53
2024/01/30 01:42:00;;;;;;;3.80;3.00;;;;;;;-2.18;100.00;102875.55;104936;1254;63861;-55
2024/01/30 01:44:27;;;;;;;6.90;3.60;;;;;;;-2.17;100.00;102873.34;104801;1253;73899;-55
2024/01/30 01:46:55;;;;;;;5.80;3.50;;;;;;;-2.15;100.00;102870.77;104876;1257;67439;-54
2024/01/30 01:49:24;;;;;;;4.80;2.80;;;;;;;-2.14;100.00;102862.39;104919;1260;73583;-54
2024/01/30 01:51:51;;;;;;;3.80;3.00;;;;;;;-2.15;100.00;102861.81;106536;1254;60329;-55
2024/01/30 01:54:19;;;;;;;5.40;3.60;;;;;;;-2.18;100.00;102848.98;104999;1254;60443;-55
2024/01/30 01:56:46;;;;;;;5.20;3.80;;;;;;;-2.21;100.00;102842.33;104917;1254;74090;-57
2024/01/30 01:59:13;;;;;;;6.50;3.80;;;;;;;-2.24;100.00;102834.05;105055;1254;66903;-55
2024/01/30 02:01:41;;;;;;;5.00;3.30;;;;;;;-2.29;100.00;102827.16;105038;1260;70722;-54
2024/01/30 02:04:09;;;;;;;5.80;3.40;;;;;;;-2.31;100.00;102824.05;109168;1252;58404;-55
2024/01/30 02:06:36;;;;;;;6.00;3.70;;;;;;;-2.34;100.00;102822.48;109082;1254;60021;-54
2024/01/30 02:09:04;;;;;;;6.10;4.20;;;;;;;-2.37;100.00;102818.09;109124;1254;73902;-54
2024/01/30 02:11:31;;;;;;;4.90;3.20;;;;;;;-2.40;100.00;102815.67;108996;1252;66842;-54
2024/01/30 02:14:03;;;;;;;5.90;3.90;;;;;;;-2.43;100.00;102813.18;109050;1253;71060;-55
2024/01/30 02:16:31;;;;;;;6.70;3.80;;;;;;;-2.46;100.00;102818.30;108921;1253;60463;-55
2024/01/30 02:18:58;;;;;;;4.20;3.50;;;;;;;-2.46;100.00;102816.54;109129;1253;58657;-55
2024/01/30 02:21:26;;;;;;;3.10;2.10;;;;;;;-2.45;100.00;102815.76;109193;1254;72580;-55
2024/01/30 02:23:53;;;;;;;6.00;2.80;;;;;;;-2.42;100.00;102817.14;109073;1254;66472;-54
2024/01/30 02:26:20;;;;;;;2.80;2.10;;;;;;;-2.39;100.00;102812.53;109063;1253;71358;-56
2024/01/30 02:28:47;;;;;;;3.20;2.50;;;;;;;-2.36;100.00;102811.11;109087;1254;59337;-56
2024/01/30 02:31:15;;;;;;;4.00;2.50;;;;;;;-2.32;100.00;102815.36;109284;1252;60115;-56
2024/01/30 02:33:42;;;;;;;5.30;3.30;;;;;;;-2.29;100.00;102811.48;107620;1253;72670;-54
2024/01/30 02:36:10;;;;;;;6.00;3.30;;;;;;;-2.27;100.00;102814.55;105679;1253;66947;-53
2024/01/30 02:38:37;;;;;;;4.50;3.20;;;;;;;-2.27;100.00;102812.80;105150;1257;70986;-53
2024/01/30 02:41:04;;;;;;;6.50;4.00;;;;;;;-2.27;100.00;102811.77;104984;1255;60664;-57
2024/01/30 02:43:32;;;;;;;4.70;2.90;;;;;;;-2.27;100.00;102816.64;104995;1257;60540;-51
2024/01/30 02:46:00;;;;;;;7.90;3.90;;;;;;;-2.31;100.00;102816.70;104985;1254;74379;-54
2024/01/30 02:48:28;;;;;;;5.40;4.10;;;;;;;-2.33;100.00;102813.58;105390;1254;65825;-54
2024/01/30 02:50:55;;;;;;;6.30;4.10;;;;;;;-2.36;100.00;102814.65;104753;1253;71347;-54
2024/01/30 02:53:23;;;;;;;6.50;3.70;;;;;;;-2.39;100.00;102805.68;104875;1253;60482;-55
2024/01/30 02:55:50;;;;;;;5.20;3.80;;;;;;;-2.42;100.00;102803.23;105131;1256;60811;-55
2024/01/30 02:58:17;;;;;;;6.00;4.20;;;;;;;-2.45;100.00;102803.44;104915;1254;72038;-55
2024/01/30 03:00:45;;;;;;;6.60;4.10;;;;;;;-2.48;100.00;102799.02;104898;1253;66015;-55
2024/01/30 03:03:12;;;;;;;6.60;3.70;;;;;;;-2.51;100.00;102800.98;105900;1253;71450;-55
2024/01/30 03:05:39;;;;;;;5.60;3.30;;;;;;;-2.53;100.00;102802.80;104757;1254;60546;-56
2024/01/30 03:08:07;;;;;;;6.50;3.40;;;;;;;-2.53;100.00;102796.98;104940;1254;60453;-56
2024/01/30 03:10:34;;;;;;;6.10;4.10;;;;;;;-2.52;100.00;102797.43;104957;1257;74321;-55
2024/01/30 03:13:01;;;;;;;6.30;3.30;;;;;;;-2.49;100.00;102794.94;104882;1257;67047;-56
2024/01/30 03:15:29;;;;;;;6.50;3.60;;;;;;;-2.47;100.00;102797.35;105071;1259;70621;-54
2024/01/30 03:17:56;;;;;;;5.10;3.20;;;;;;;-2.45;100.00;102793.73;104914;1256;61031;-54
2024/01/30 03:20:24;;;;;;;5.40;3.70;;;;;;;-2.44;100.00;102790.46;105073;1254;60296;-56
2024/01/30 03:22:51;;;;;;;5.50;3.60;;;;;;;-2.43;100.00;102792.08;104997;1259;72220;-55
2024/01/30 03:25:18;;;;;;;5.40;3.80;;;;;;;-2.44;100.00;102791.51;105119;1254;67240;-55
2024/01/30 03:27:46;;;;;;;6.30;3.60;;;;;;;-2.47;100.00;102784.87;104946;1254;70933;-55
2024/01/30 03:30:13;;;;;;;5.60;3.50;;;;;;;-2.50;100.00;102781.55;104646;1259;60562;-54
2024/01/30 03:32:41;;;;;;;5.80;3.60;;;;;;;-2.52;100.00;102779.10;104987;1254;60865;-54
2024/01/30 03:35:09;;;;;;;5.70;3.50;;;;;;;-2.56;100.00;102773.98;105060;1254;73943;-53
2024/01/30 03:37:36;;;;;;;3.60;3.30;;;;;;;-2.59;100.00;102769.59;105382;1254;65773;-55
2024/01/30 03:40:04;;;;;;;5.80;3.70;;;;;;;-2.63;100.00;102766.23;104836;1254;72731;-55
2024/01/30 03:42:31;;;;;;;6.20;4.30;;;;;;;-2.67;100.00;102764.62;105176;1254;60608;-54
2024/01/30 03:44:59;;;;;;;6.40;4.60;;;;;;;-2.71;100.00;102767.39;104952;1254;60529;-55
2024/01/30 03:47:26;;;;;;;6.30;4.30;;;;;;;-2.75;100.00;102766.30;104907;1253;74796;-55
2024/01/30 03:49:53;;;;;;;5.90;3.80;;;;;;;-2.79;100.00;102765.73;104859;1256;65682;-54
2024/01/30 03:52:21;;;;;;;6.40;4.20;;;;;;;-2.81;100.00;102763.00;105099;1256;71014;-56
2024/01/30 03:54:48;;;;;;;5.60;3.90;;;;;;;-2.82;100.00;102763.48;105732;1257;60449;-54
2024/01/30 03:57:15;;;;;;;4.00;3.10;;;;;;;-2.82;100.00;102767.34;104955;1254;60584;-54
2024/01/30 03:59:43;;;;;;;2.80;1.80;;;;;;;-2.81;100.00;102767.40;104918;1254;72617;-55
2024/01/30 04:02:11;;;;;;;4.30;2.90;;;;;;;-2.79;100.00;102767.13;104948;1253;67603;-55
2024/01/30 04:04:39;;;;;;;9.00;3.20;;;;;;;-2.78;100.00;102769.67;104836;1253;73076;-55
2024/01/30 04:07:06;;;;;;;6.40;3.90;;;;;;;-2.76;100.00;102771.17;105048;1254;60569;-54
2024/01/30 04:09:34;;;;;;;5.30;3.20;;;;;;;-2.75;100.00;102770.16;104936;1257;60361;-57
2024/01/30 04:12:02;;;;;;;5.10;3.40;;;;;;;-2.75;100.00;102768.56;105102;1253;72926;-57
2024/01/30 04:14:30;;;;;;;6.30;3.80;;;;;;;-2.76;100.00;102767.83;105189;1254;65641;-54
2024/01/30 04:16:57;;;;;;;3.90;2.90;;;;;;;-2.77;100.00;102764.64;105064;1257;70459;-55
2024/01/30 04:19:25;;;;;;;9.10;4.50;;;;;;;-2.78;100.00;102762.64;104835;1254;60532;-54
2024/01/30 04:21:52;;;;;;;5.50;4.10;;;;;;;-2.80;100.00;102758.98;105424;1254;60473;-55
2024/01/30 04:24:20;;;;;;;6.50;4.70;;;;;;;-2.84;100.00;102757.59;105017;1254;73970;-55
2024/01/30 04:26:47;;;;;;;5.70;4.20;;;;;;;-2.85;100.00;102754.70;104955;1254;66875;-54
2024/01/30 04:29:14;;;;;;;4.90;4.10;;;;;;;-2.87;100.00;102755.25;104814;1255;72932;-55
2024/01/30 04:31:41;;;;;;;6.90;4.80;;;;;;;-2.89;100.00;102754.10;105025;1254;60436;-54
2024/01/30 04:34:09;;;;;;;5.60;4.80;;;;;;;-2.92;100.00;102754.66;105544;1254;60531;-54
2024/01/30 04:36:36;;;;;;;5.30;4.30;;;;;;;-2.95;100.00;102754.46;105009;1257;72381;-55
2024/01/30 04:39:04;;;;;;;6.20;4.70;;;;;;;-2.98;100.00;102753.29;105039;1254;67023;-54
2024/01/30 04:41:31;;;;;;;5.50;4.00;;;;;;;-2.99;100.00;102750.22;104987;1257;72674;-55
2024/01/30 04:43:59;;;;;;;3.80;3.00;;;;;;;-3.00;100.00;102751.59;105054;1254;60763;-54
2024/01/30 04:46:26;;;;;;;5.60;3.40;;;;;;;-3.00;100.00;102744.55;105048;1257;60328;-56
2024/01/30 04:48:54;;;;;;;4.90;3.10;;;;;;;-2.99;100.00;102742.52;105080;1256;76217;-56
2024/01/30 04:51:21;;;;;;;4.60;2.80;;;;;;;-2.97;100.00;102742.97;104773;1253;66804;-56
2024/01/30 04:53:48;;;;;;;4.30;2.80;;;;;;;-2.95;100.00;102748.17;104894;1256;72686;-52
2024/01/30 04:56:16;;;;;;;6.70;3.40;;;;;;;-2.92;100.00;102749.93;105053;1254;60550;-57
2024/01/30 04:58:43;;;;;;;7.50;4.00;;;;;;;-2.91;100.00;102746.84;104979;1257;60537;-56
2024/01/30 05:01:15;;;;;;;5.20;3.20;;;;;;;-2.90;100.00;102746.50;104904;1257;74315;-55
2024/01/30 05:03:42;;;;;;;5.60;4.00;;;;;;;-2.91;100.00;102739.59;105108;1257;67637;-56
2024/01/30 05:06:10;;;;;;;5.50;3.00;;;;;;;-2.92;100.00;102739.01;104862;1257;71864;-55
2024/01/30 05:08:37;;;;;;;4.70;3.50;;;;;;;-2.93;100.00;102736.85;109070;1254;58431;-54
2024/01/30 05:11:05;;;;;;;6.70;4.90;;;;;;;-2.95;100.00;102731.10;109146;1253;59983;-54
2024/01/30 05:13:32;;;;;;;8.10;3.90;;;;;;;-2.98;100.00;102730.44;109096;1253;73920;-54
2024/01/30 05:16:03;;;;;;;5.60;3.90;;;;;;;-3.01;100.00;102733.42;109161;1253;66074;-55
2024/01/30 05:18:30;;;;;;;6.50;3.90;;;;;;;-3.04;100.00;102730.08;108859;1254;73102;-54
2024/01/30 05:20:58;;;;;;;7.80;4.00;;;;;;;-3.07;100.00;102730.88;109165;1253;61657;-55
2024/01/30 05:23:25;;;;;;;6.50;4.40;;;;;;;-3.09;100.00;102736.20;105369;1254;60466;-53
2024/01/30 05:25:52;;;;;;;5.50;3.90;;;;;;;-3.12;100.00;102736.36;104987;1254;72637;-55
2024/01/30 05:28:20;;;;;;;5.80;4.00;;;;;;;-3.13;100.00;102735.05;104948;1258;66255;-53
2024/01/30 05:30:48;;;;;;;4.00;2.80;;;;;;;-3.13;100.00;102731.71;105033;1257;72711;-55
2024/01/30 05:33:15;;;;;;;5.00;3.10;;;;;;;-3.13;100.00;102735.09;105950;1255;60543;-55
2024/01/30 05:35:43;;;;;;;7.70;2.90;;;;;;;-3.10;100.00;102733.82;109107;1253;59928;-56
2024/01/30 05:38:11;;;;;;;4.80;2.80;;;;;;;-3.09;100.00;102735.13;106335;1255;73996;-55
2024/01/30 05:40:38;;;;;;;4.60;2.80;;;;;;;-3.07;100.00;102738.27;104815;1254;67184;-54
2024/01/30 05:43:08;;;;;;;6.70;3.90;;;;;;;-3.03;100.00;102743.68;104935;1254;71447;-55
2024/01/30 05:45:36;;;;;;;4.30;3.60;;;;;;;-3.00;100.00;102743.86;105228;1257;60559;-53
2024/01/30 05:48:04;;;;;;;6.90;4.10;;;;;;;-2.98;100.00;102745.55;105090;1254;60523;-54
2024/01/30 05:50:31;;;;;;;7.60;3.80;;;;;;;-2.96;100.00;102745.13;105167;1256;74224;-54
2024/01/30 05:52:58;;;;;;;9.10;5.30;;;;;;;-2.95;100.00;102742.16;105076;1253;65661;-55
2024/01/30 05:55:26;;;;;;;6.30;4.40;;;;;;;-2.97;100.00;102742.45;105228;1254;72454;-53
2024/01/30 05:57:53;;;;;;;8.50;5.10;;;;;;;-2.99;100.00;102742.85;105152;1254;60415;-54
2024/01/30 06:00:20;;;;;;;7.30;5.60;;;;;;;-3.00;100.00;102748.23;105146;1254;60682;-55
2024/01/30 06:02:48;;;;;;;7.40;5.20;;;;;;;-3.02;100.00;102751.30;105001;1254;72633;-54
2024/01/30 06:05:15;;;;;;;9.20;5.30;;;;;;;-3.03;100.00;102745.26;105119;1256;66791;-55
2024/01/30 06:07:42;;;;;;;12.30;7.70;;;;;;;-3.04;100.00;102743.96;105193;1258;70757;-55
2024/01/30 06:10:10;;;;;;;10.00;6.00;;;;;;;-3.06;100.00;102742.83;105013;1254;60518;-55
2024/01/30 06:12:37;;;;;;;10.10;6.50;;;;;;;-3.08;100.00;102744.34;105314;1254;60463;-54
2024/01/30 06:15:06;;;;;;;14.80;6.60;;;;;;;-3.10;100.00;102739.14;104905;1255;72631;-54
2024/01/30 06:17:33;;;;;;;9.30;6.00;;;;;;;-3.11;100.00;102737.85;105420;1256;66767;-55
2024/01/30 06:20:01;;;;;;;9.50;5.30;;;;;;;-3.09;100.00;102739.69;105086;1258;72652;-54
2024/01/30 06:22:28;;;;;;;9.80;5.10;;;;;;;-3.07;100.00;102742.61;105106;1254;60974;-55
2024/01/30 06:24:56;;;;;;;8.20;4.90;;;;;;;-3.03;100.00;102738.59;105236;1254;61832;-54
2024/01/30 06:27:23;;;;;;;9.30;5.80;;;;;;;-2.97;100.00;102736.44;105077;1254;72604;-51
2024/01/30 06:29:50;;;;;;;8.90;5.30;;;;;;;-2.90;100.00;102738.41;105145;1253;66090;-55
2024/01/30 06:32:18;;;;;;;8.20;5.00;;;;;;;-2.83;100.00;102745.31;104984;1254;71778;-52
2024/01/30 06:34:45;;;;;;;9.40;5.10;;;;;;;-2.75;100.00;102748.36;104889;1257;60697;-54
2024/01/30 06:37:12;;;;;;;8.10;5.40;;;;;;;-2.68;100.00;102749.78;105446;1253;60568;-53
2024/01/30 06:39:40;;;;;;;8.20;5.20;;;;;;;-2.62;100.00;102753.45;104938;1254;74303;-54
2024/01/30 06:42:07;;;;;;;7.90;4.60;;;;;;;-2.57;100.00;102754.27;104942;1253;65710;-55
2024/01/30 06:44:34;;;;;;;10.40;6.00;;;;;;;-2.54;100.00;102752.44;104927;1257;72682;-54
2024/01/30 06:47:02;;;;;;;8.80;5.00;;;;;;;-2.53;100.00;102751.33;105028;1255;60401;-54
2024/01/30 06:49:29;;;;;;;8.20;5.60;;;;;;;-2.49;100.00;102752.73;104941;1254;60441;-55
2024/01/30 06:51:57;;;;;;;8.80;5.80;;;;;;;-2.47;100.00;102745.63;104876;1257;74285;-55
2024/01/30 06:54:24;;;;;;;9.80;5.40;;;;;;;-2.44;100.00;102737.34;105138;1258;69914;-54
2024/01/30 06:56:51;;;;;;;11.40;5.60;;;;;;;-2.40;100.00;102739.66;105052;1254;72695;-53
2024/01/30 06:59:19;;;;;;;6.20;4.40;;;;;;;-2.37;100.00;102736.47;105058;1257;61370;-53
2024/01/30 07:01:46;;;;;;;8.50;4.90;;;;;;;-2.35;100.00;102731.16;104888;1254;60657;-54
2024/01/30 07:04:13;;;;;;;6.50;4.30;;;;;;;-2.30;100.00;102730.50;105223;1256;71951;-53
2024/01/30 07:06:41;;;;;;;7.30;4.60;;;;;;;-2.23;100.00;102729.27;104892;1254;66894;-53
2024/01/30 07:09:08;;;;;;;5.70;4.30;;;;;;;-2.16;100.00;102730.49;105002;1256;72056;-54
2024/01/30 07:11:36;;;;;;;5.60;4.50;;;;;;;-2.11;100.00;102726.21;104873;1253;60885;-54
2024/01/30 07:14:06;;;;;;;9.90;4.70;;;;;;;-2.05;100.00;102730.56;104979;1253;60553;-54
2024/01/30 07:16:33;;;;;;;6.40;4.20;;;;;;;-2.00;100.00;102729.38;104991;1254;276252;-54
2024/01/30 07:19:52;;;;;;;6.90;5.50;;;;;;;-1.93;100.00;102829.52;101878;1291;600283;-54
2024/01/30 07:22:20;;;;;;;7.80;5.40;;;;;;;-1.91;100.00;102835.80;103805;1272;59717;-53
2024/01/30 07:24:49;;;;;;;5.70;4.40;;;;;;;-1.87;100.00;102827.56;104167;1272;59239;-52
2024/01/30 07:27:17;;;;;;;6.60;4.30;;;;;;;-1.81;100.00;102822.92;104154;1267;70851;-52
2024/01/30 07:29:45;;;;;;;5.50;3.60;;;;;;;-1.76;100.00;102817.00;104541;1272;67464;-52
2024/01/30 07:32:12;;;;;;;6.30;2.90;;;;;;;-1.71;100.00;102813.61;104049;1270;72746;-52
2024/01/30 07:34:39;;;;;;;5.40;3.30;;;;;;;-1.62;100.00;102813.16;104135;1270;194358;-53
2024/01/30 07:37:25;;;;;;;6.70;4.30;;;;;;;-1.50;100.00;102807.23;104137;1265;59228;-52
2024/01/30 07:39:52;;;;;;;10.20;4.20;;;;;;;-1.39;100.00;102800.36;104129;1272;71129;-53
2024/01/30 07:42:19;;;;;;;5.80;3.30;;;;;;;-1.28;100.00;102802.31;104312;1269;67100;-52
2024/01/30 07:44:46;;;;;;;5.00;3.20;;;;;;;-1.19;100.00;102798.86;104305;1271;72725;-51
2024/01/30 07:47:14;;;;;;;7.80;4.10;;;;;;;-1.10;100.00;102801.61;104502;1269;60355;-51
2024/01/30 07:49:41;;;;;;;8.10;4.70;;;;;;;-1.03;100.00;102799.13;104220;1271;59989;-52
2024/01/30 07:52:09;;;;;;;5.10;3.40;;;;;;;-0.96;100.00;102799.10;104172;1263;71759;-53
2024/01/30 07:54:38;;;;;;;4.70;3.00;;;;;;;-0.90;100.00;102802.19;104037;1269;66753;-54
2024/01/30 07:57:06;;;;;;;6.10;2.70;;;;;;;-0.84;100.00;102800.54;104029;1269;70654;-54
2024/01/30 07:59:33;;;;;;;5.30;3.50;;;;;;;-0.80;100.00;102797.41;104394;1268;59782;-53
2024/01/30 08:02:00;;;;;;;5.90;3.50;;;;;;;-0.74;100.00;102797.65;104641;1263;59569;-54
2024/01/30 08:04:28;;;;;;;6.00;3.30;;;;;;;-0.67;100.00;102792.50;104473;1265;73013;-53
2024/01/30 08:06:55;;;;;;;5.20;2.20;;;;;;;-0.59;100.00;102792.71;104474;1266;66306;-54
2024/01/30 08:09:23;;;;;;;6.60;3.20;;;;;;;-0.50;100.00;102794.35;104404;1266;73475;-53
2024/01/30 08:11:50;;;;;;;4.30;2.50;;;;;;;-0.40;100.00;102797.78;104564;1265;59984;-54
2024/01/30 08:14:18;;;;;;;4.60;2.30;;;;;;;-0.29;100.00;102792.41;104460;1261;59616;-52
2024/01/30 08:16:45;;;;;;;5.00;2.00;;;;;;;-0.18;100.00;102793.98;104431;1266;73369;-52
2024/01/30 08:19:14;;;;;;;3.40;2.40;;;;;;;-0.08;100.00;102793.73;104411;1262;64893;-53
2024/01/30 08:21:42;;;;;;;5.60;2.60;;;;;;;0.01;100.00;102792.18;105967;1261;73122;-52
2024/01/30 08:24:09;;;;;;;3.80;2.30;;;;;;;0.08;100.00;102792.98;106655;1266;59733;-54
2024/01/30 08:26:37;;;;;;;1.70;1.00;;;;;;;0.15;100.00;102796.30;104445;1262;59789;-52
2024/01/30 08:29:04;;;;;;;3.40;2.00;;;;;;;0.21;100.00;102796.55;104358;1261;71853;-55
2024/01/30 08:31:31;;;;;;;2.10;1.20;;;;;;;0.25;100.00;102801.14;105248;1261;64743;-55
2024/01/30 08:33:59;;;;;;;2.90;2.20;;;;;;;0.27;100.00;102792.75;104941;1265;71567;-54
2024/01/30 08:36:26;;;;;;;4.00;3.00;;;;;;;0.29;100.00;102794.61;104346;1267;59732;-53
2024/01/30 08:38:54;;;;;;;3.80;1.80;;;;;;;0.32;100.00;102790.70;104209;1269;59716;-53
2024/01/30 08:41:28;;;;;;;2.80;1.80;;;;;;;0.39;100.00;102790.77;105285;1266;71505;-53
2024/01/30 08:43:56;;;;;;;3.20;2.40;;;;;;;0.45;100.00;102792.42;104736;1264;66007;-56
2024/01/30 08:46:24;;;;;;;2.10;1.50;;;;;;;0.49;100.00;102795.25;104200;1276;72713;-55
2024/01/30 08:48:51;;;;;;;3.20;1.40;;;;;;;0.54;100.00;102796.54;104279;1261;59960;-51
2024/01/30 08:51:19;;;;;;;2.00;1.50;;;;;;;0.59;100.00;102796.22;108591;1260;58863;-55
2024/01/30 08:53:46;;;;;;;2.50;1.50;;;;;;;0.66;100.00;102797.04;104787;1267;71796;-55
2024/01/30 08:56:13;;;;;;;1.90;1.60;;;;;;;0.72;100.00;102793.73;104400;1266;66294;-54
2024/01/30 08:58:41;;;;;;;2.50;1.70;;;;;;;0.76;100.00;102789.29;104487;1264;73144;-54
2024/01/30 09:01:08;;;;;;;2.70;2.00;;;;;;;0.79;100.00;102790.83;104445;1265;60310;-54
2024/01/30 09:03:37;;;;;;;2.10;1.90;;;;;;;0.81;100.00;102788.41;104947;1267;59852;-52
2024/01/30 09:06:08;;;;;;;3.20;1.50;;;;;;;0.82;100.00;102781.59;104254;1261;73146;-52
2024/01/30 09:08:35;;;;;;;2.70;1.90;;;;;;;0.85;100.00;102782.95;104377;1268;66360;-50
2024/01/30 09:11:13;;;;;;;3.10;2.20;;;;;;;0.87;100.00;102783.02;104386;1267;71595;-55
2024/01/30 09:13:40;;;;;;;1.90;1.50;;;;;;;0.91;100.00;102784.57;104416;1264;59704;-51
2024/01/30 09:16:07;;;;;;;3.50;2.00;;;;;;;0.95;100.00;102776.95;104356;1267;59679;-52
2024/01/30 09:18:35;;;;;;;3.40;2.10;;;;;;;1.00;100.00;102775.41;104258;1265;73188;-52
2024/01/30 09:21:02;;;;;;;2.60;2.20;;;;;;;1.06;100.00;102774.02;104555;1261;67927;-51
2024/01/30 09:23:29;;;;;;;3.90;2.10;;;;;;;1.10;100.00;102777.73;104219;1266;73158;-55
2024/01/30 09:25:57;;;;;;;2.10;1.50;;;;;;;1.13;100.00;102773.77;104457;1268;60024;-51
2024/01/30 09:28:24;;;;;;;2.70;1.70;;;;;;;1.12;100.00;102769.68;104439;1266;60624;-54
2024/01/30 09:30:54;;;;;;;2.80;2.20;;;;;;;1.11;100.00;102762.20;104974;1262;71255;-53
2024/01/30 09:33:21;;;;;;;3.70;1.70;;;;;;;1.09;100.00;102757.72;104128;1267;67552;-55
2024/01/30 09:35:49;;;;;;;2.50;1.80;;;;;;;1.09;100.00;102752.23;105531;1261;72660;-52
2024/01/30 09:38:16;;;;;;;2.30;1.30;;;;;;;1.15;100.00;102753.31;104486;1265;60932;-53
2024/01/30 09:40:44;;;;;;;2.90;1.60;;;;;;;1.23;100.00;102743.02;104490;1267;62665;-53
2024/01/30 09:43:18;;;;;;;2.50;1.40;;;;;;;1.31;100.00;102738.17;105355;1261;73257;-56
2024/01/30 09:45:46;;;;;;;2.50;1.40;;;;;;;1.37;100.00;102735.57;105072;1260;69127;-55
2024/01/30 09:48:13;;;;;;;2.10;1.40;;;;;;;1.45;100.00;102736.05;104446;1264;72727;-55
2024/01/30 09:50:41;;;;;;;3.80;1.80;;;;;;;1.53;100.00;102733.84;104524;1267;59632;-53
2024/01/30 09:53:09;;;;;;;2.60;1.50;;;;;;;1.60;100.00;102736.58;104486;1264;59775;-55
2024/01/30 09:55:36;;;;;;;2.40;1.70;;;;;;;1.65;100.00;102737.30;105018;1255;71833;-55
2024/01/30 09:58:04;;;;;;;1.90;1.50;;;;;;;1.71;100.00;102739.80;105171;1255;65810;-55
2024/01/30 10:00:31;;;;;;;2.00;1.50;;;;;;;1.77;100.00;102735.77;105638;1260;72568;-57
2024/01/30 10:03:02;;;;;;;1.70;1.50;;;;;;;1.80;100.00;102732.84;105700;1258;61380;-55
2024/01/30 10:05:29;;;;;;;2.00;1.20;;;;;;;1.80;100.00;102727.54;104969;1254;60288;-56
2024/01/30 10:07:57;;;;;;;2.20;1.50;;;;;;;1.83;100.00;102729.80;104868;1260;71727;-56
2024/01/30 10:10:25;;;;;;;1.90;1.30;;;;;;;1.87;100.00;102729.23;105267;1260;65984;-55
2024/01/30 10:12:52;;;;;;;1.50;1.30;;;;;;;1.93;100.00;102730.66;105200;1260;72326;-55
2024/01/30 10:15:19;;;;;;;2.30;1.60;;;;;;;1.98;100.00;102730.28;104707;1254;59722;-54
2024/01/30 10:17:47;;;;;;;2.80;1.70;;;;;;;1.99;100.00;102725.20;106345;1257;59648;-55
2024/01/30 10:20:14;;;;;;;2.30;1.60;;;;;;;1.98;100.00;102724.28;104870;1255;73584;-56
2024/01/30 10:22:44;;;;;;;2.90;1.30;;;;;;;1.98;100.00;102723.05;105501;1254;65708;-55
2024/01/30 10:25:11;;;;;;;2.80;1.50;;;;;;;1.99;100.00;102721.48;104875;1254;74854;-54
2024/01/30 10:27:39;;;;;;;1.90;1.40;;;;;;;2.01;100.00;102721.73;105504;1254;59603;-55
2024/01/30 10:30:08;;;;;;;2.00;1.40;;;;;;;2.03;100.00;102718.26;109012;1253;59318;-56
2024/01/30 10:32:35;;;;;;;2.40;1.70;;;;;;;2.03;100.00;102717.20;105453;1258;73629;-55
2024/01/30 10:35:03;;;;;;;2.00;1.20;;;;;;;2.05;100.00;102721.67;104847;1254;66922;-55
2024/01/30 10:37:32;;;;;;;3.10;1.40;;;;;;;2.07;100.00;102725.45;104584;1254;72571;-56
2024/01/30 10:40:06;;;;;;;1.70;1.50;;;;;;;2.08;100.00;102719.85;104992;1254;59861;-56
2024/01/30 10:42:33;;;;;;;1.90;1.20;;;;;;;2.11;100.00;102720.28;104772;1254;60084;-55
2024/01/30 10:45:12;;;;;;;3.20;1.30;;;;;;;2.14;100.00;102718.98;104551;1261;72666;-56
2024/01/30 10:47:42;;;;;;;1.70;1.10;;;;;;;2.17;100.00;102724.23;105004;1254;65848;-55
2024/01/30 10:50:10;;;;;;;2.10;1.30;;;;;;;2.19;100.00;102723.06;104723;1257;71831;-56
2024/01/30 10:52:39;;;;;;;1.70;1.30;;;;;;;2.22;100.00;102723.48;108971;1254;59464;-56
2024/01/30 10:55:07;;;;;;;2.10;1.50;;;;;;;2.23;100.00;102718.90;109099;1253;60092;-56
2024/01/30 10:57:36;;;;;;;1.50;1.20;;;;;;;2.25;100.00;102721.45;109036;1254;71308;-56
2024/01/30 11:00:15;;;;;;;1.90;1.40;;;;;;;2.29;100.00;102722.30;106847;1255;69302;-54
2024/01/30 11:02:44;;;;;;;2.70;1.40;;;;;;;2.32;100.00;102724.67;109163;1256;72772;-57
2024/01/30 11:05:12;;;;;;;2.10;1.80;;;;;;;2.34;100.00;102722.66;108941;1260;61364;-57
2024/01/30 11:07:43;;;;;;;3.50;1.50;;;;;;;2.37;100.00;102722.40;108978;1254;60492;-55
2024/01/30 11:10:13;;;;;;;4.20;1.60;;;;;;;2.40;100.00;102726.54;109022;1253;73490;-54
2024/01/30 11:12:42;;;;;;;2.50;1.30;;;;;;;2.43;100.00;102725.95;108901;1253;67569;-53
2024/01/30 11:15:14;;;;;;;4.10;1.10;;;;;;;2.46;100.00;102724.80;108858;1257;71873;-52